sensor_id;sensor_type;location;lat;lon;timestamp;pressure;altitude;pressure_sealevel;temperature;humidity
79138;BME280;68544;45.566;10.238;2023-03-14T02:06:34;98805.41;;;13.81;56.23
79138;BME280;68544;45.566;10.238;2023-03-14T02:09:02;98764.84;;;13.86;56.56
79138;BME280;68544;45.566;10.238;2023-03-14T02:11:29;98751.47;;;13.84;55.95
79138;BME280;68544;45.566;10.238;2023-03-14T02:13:56;98752.66;;;13.88;55.06
79138;BME280;68544;45.566;10.238;2023-03-14T02:16:23;98763.16;;;13.96;55.85
79138;BME280;68544;45.566;10.238;2023-03-14T02:18:48;98752.31;;;13.85;56.27
79138;BME280;68544;45.566;10.238;2023-03-14T02:21:49;98740.16;;;13.87;56.35
79138;BME280;68544;45.566;10.238;2023-03-14T02:27:17;98746.75;;;13.91;55.82
79138;BME280;68544;45.566;10.238;2023-03-14T02:29:49;98739.66;;;13.90;55.96
79138;BME280;68544;45.566;10.238;2023-03-14T02:32:16;98747.22;;;13.88;56.39
79138;BME280;68544;45.566;10.238;2023-03-14T02:34:44;98741.81;;;13.88;56.00
79138;BME280;68544;45.566;10.238;2023-03-14T02:37:14;98732.94;;;13.93;55.87
79138;BME280;68544;45.566;10.238;2023-03-14T02:39:44;98741.09;;;13.93;55.25
79138;BME280;68544;45.566;10.238;2023-03-14T02:42:11;98731.06;;;13.93;55.51
79138;BME280;68544;45.566;10.238;2023-03-14T02:44:48;98730.16;;;13.88;55.93
79138;BME280;68544;45.566;10.238;2023-03-14T02:47:14;98731.06;;;13.82;55.96
79138;BME280;68544;45.566;10.238;2023-03-14T02:49:39;98712.97;;;13.71;56.51
79138;BME280;68544;45.566;10.238;2023-03-14T02:52:05;98704.56;;;13.72;56.46
79138;BME280;68544;45.566;10.238;2023-03-14T02:54:31;98710.19;;;13.82;56.31
79138;BME280;68544;45.566;10.238;2023-03-14T02:56:56;98715.03;;;13.92;57.40
79138;BME280;68544;45.566;10.238;2023-03-14T02:59:22;98683.16;;;13.36;64.83
79138;BME280;68544;45.566;10.238;2023-03-14T03:01:47;98667.28;;;13.16;64.00
79138;BME280;68544;45.566;10.238;2023-03-14T03:04:12;98670.19;;;13.15;62.61
79138;BME280;68544;45.566;10.238;2023-03-14T03:06:38;98656.78;;;13.20;62.36
79138;BME280;68544;45.566;10.238;2023-03-14T03:09:03;98663.38;;;13.24;61.66
79138;BME280;68544;45.566;10.238;2023-03-14T03:11:29;98647.91;;;13.36;60.52
79138;BME280;68544;45.566;10.238;2023-03-14T03:13:54;98659.25;;;13.33;60.14
79138;BME280;68544;45.566;10.238;2023-03-14T03:16:20;98646.03;;;13.36;59.81
79138;BME280;68544;45.566;10.238;2023-03-14T03:18:45;98622.56;;;13.42;60.02
79138;BME280;68544;45.566;10.238;2023-03-14T03:21:10;98621.50;;;13.43;59.42
79138;BME280;68544;45.566;10.238;2023-03-14T03:23:36;98615.69;;;13.51;58.99
79138;BME280;68544;45.566;10.238;2023-03-14T03:26:02;98612.59;;;13.59;59.18
79138;BME280;68544;45.566;10.238;2023-03-14T03:28:28;98613.50;;;13.48;58.89
79138;BME280;68544;45.566;10.238;2023-03-14T03:30:53;98611.25;;;13.45;59.01
79138;BME280;68544;45.566;10.238;2023-03-14T03:33:18;98627.84;;;13.48;58.92
79138;BME280;68544;45.566;10.238;2023-03-14T03:35:50;98622.09;;;13.45;58.84
79138;BME280;68544;45.566;10.238;2023-03-14T03:38:15;98604.06;;;13.39;59.36
79138;BME280;68544;45.566;10.238;2023-03-14T03:40:41;98597.09;;;13.43;59.15
79138;BME280;68544;45.566;10.238;2023-03-14T03:43:06;98606.53;;;13.52;58.99
79138;BME280;68544;45.566;10.238;2023-03-14T03:45:32;98597.81;;;13.50;58.90
79138;BME280;68544;45.566;10.238;2023-03-14T03:47:57;98609.94;;;13.48;59.60
79138;BME280;68544;45.566;10.238;2023-03-14T03:50:23;98614.06;;;13.50;59.60
79138;BME280;68544;45.566;10.238;2023-03-14T03:52:48;98634.56;;;13.46;59.74
79138;BME280;68544;45.566;10.238;2023-03-14T03:55:13;98630.03;;;13.63;59.15
79138;BME280;68544;45.566;10.238;2023-03-14T03:57:39;98617.00;;;13.48;59.47
79138;BME280;68544;45.566;10.238;2023-03-14T04:00:05;98598.25;;;13.47;59.66
79138;BME280;68544;45.566;10.238;2023-03-14T04:02:32;98594.78;;;13.35;60.09
79138;BME280;68544;45.566;10.238;2023-03-14T04:04:57;98586.44;;;12.90;69.81
79138;BME280;68544;45.566;10.238;2023-03-14T04:07:22;98601.41;;;12.69;69.69
79138;BME280;68544;45.566;10.238;2023-03-14T04:09:48;98577.59;;;12.95;66.22
79138;BME280;68544;45.566;10.238;2023-03-14T04:12:13;98584.31;;;13.04;65.75
79138;BME280;68544;45.566;10.238;2023-03-14T04:14:39;98565.91;;;13.17;64.62
79138;BME280;68544;45.566;10.238;2023-03-14T04:17:06;98548.09;;;13.33;63.46
79138;BME280;68544;45.566;10.238;2023-03-14T04:19:32;98532.88;;;13.32;62.72
79138;BME280;68544;45.566;10.238;2023-03-14T04:21:57;98525.25;;;13.29;62.52
79138;BME280;68544;45.566;10.238;2023-03-14T04:24:22;98519.81;;;13.29;62.35
79138;BME280;68544;45.566;10.238;2023-03-14T04:26:48;98527.16;;;13.17;62.27
79138;BME280;68544;45.566;10.238;2023-03-14T04:29:13;98504.50;;;13.23;62.25
79138;BME280;68544;45.566;10.238;2023-03-14T04:31:39;98515.72;;;13.26;62.41
79138;BME280;68544;45.566;10.238;2023-03-14T04:34:04;98525.72;;;13.26;62.53
79138;BME280;68544;45.566;10.238;2023-03-14T04:36:29;98497.69;;;13.20;61.64
79138;BME280;68544;45.566;10.238;2023-03-14T04:38:55;98488.75;;;13.20;61.71
79138;BME280;68544;45.566;10.238;2023-03-14T04:41:20;98490.88;;;13.18;61.92
79138;BME280;68544;45.566;10.238;2023-03-14T04:43:45;98501.56;;;13.24;61.72
79138;BME280;68544;45.566;10.238;2023-03-14T04:46:11;98456.22;;;13.20;61.41
79138;BME280;68544;45.566;10.238;2023-03-14T04:48:36;98457.38;;;13.24;61.22
79138;BME280;68544;45.566;10.238;2023-03-14T04:51:03;98458.19;;;13.24;61.43
79138;BME280;68544;45.566;10.238;2023-03-14T04:53:29;98417.75;;;13.23;61.57
79138;BME280;68544;45.566;10.238;2023-03-14T04:55:55;98461.50;;;13.26;61.64
79138;BME280;68544;45.566;10.238;2023-03-14T04:58:20;98450.28;;;13.23;61.71
79138;BME280;68544;45.566;10.238;2023-03-14T05:00:46;98458.66;;;13.21;61.93
79138;BME280;68544;45.566;10.238;2023-03-14T05:03:12;98434.03;;;13.23;61.95
79138;BME280;68544;45.566;10.238;2023-03-14T05:05:37;98457.38;;;13.24;61.72
79138;BME280;68544;45.566;10.238;2023-03-14T05:08:02;98514.28;;;13.35;61.62
79138;BME280;68544;45.566;10.238;2023-03-14T05:10:28;98520.22;;;13.49;61.90
79138;BME280;68544;45.566;10.238;2023-03-14T05:12:53;98527.72;;;13.19;68.57
79138;BME280;68544;45.566;10.238;2023-03-14T05:15:19;98541.44;;;12.31;80.01
79138;BME280;68544;45.566;10.238;2023-03-14T05:17:44;98527.31;;;12.06;79.46
79138;BME280;68544;45.566;10.238;2023-03-14T05:20:10;98538.50;;;11.68;85.60
79138;BME280;68544;45.566;10.238;2023-03-14T05:22:39;98525.38;;;11.95;84.59
79138;BME280;68544;45.566;10.238;2023-03-14T05:25:05;98532.84;;;12.11;79.06
79138;BME280;68544;45.566;10.238;2023-03-14T05:27:31;98540.41;;;12.32;77.95
79138;BME280;68544;45.566;10.238;2023-03-14T05:29:57;98544.38;;;12.41;77.60
79138;BME280;68544;45.566;10.238;2023-03-14T05:32:22;98547.81;;;12.60;73.66
79138;BME280;68544;45.566;10.238;2023-03-14T05:34:48;98541.69;;;12.64;73.99
79138;BME280;68544;45.566;10.238;2023-03-14T05:37:13;98545.44;;;12.75;74.95
79138;BME280;68544;45.566;10.238;2023-03-14T05:39:39;98545.69;;;12.74;74.93
79138;BME280;68544;45.566;10.238;2023-03-14T05:42:04;98542.66;;;12.70;74.14
79138;BME280;68544;45.566;10.238;2023-03-14T05:44:29;98537.78;;;12.84;74.33
79138;BME280;68544;45.566;10.238;2023-03-14T05:46:55;98549.44;;;12.96;70.63
79138;BME280;68544;45.566;10.238;2023-03-14T05:49:20;98562.06;;;13.02;71.43
79138;BME280;68544;45.566;10.238;2023-03-14T05:51:46;98550.75;;;12.82;70.56
79138;BME280;68544;45.566;10.238;2023-03-14T05:54:11;98546.03;;;12.89;70.36
79138;BME280;68544;45.566;10.238;2023-03-14T05:56:36;98558.03;;;13.16;69.93
79138;BME280;68544;45.566;10.238;2023-03-14T05:59:02;98562.81;;;13.37;68.44
79138;BME280;68544;45.566;10.238;2023-03-14T06:01:29;98561.19;;;13.24;68.98
79138;BME280;68544;45.566;10.238;2023-03-14T06:03:54;98549.31;;;13.14;68.80
79138;BME280;68544;45.566;10.238;2023-03-14T06:06:20;98548.63;;;12.84;69.14
79138;BME280;68544;45.566;10.238;2023-03-14T06:08:45;98531.56;;;12.72;69.93
79138;BME280;68544;45.566;10.238;2023-03-14T06:11:10;98524.47;;;12.94;68.75
79138;BME280;68544;45.566;10.238;2023-03-14T06:13:36;98525.41;;;12.88;69.08
79138;BME280;68544;45.566;10.238;2023-03-14T06:16:01;98525.06;;;12.84;68.68
79138;BME280;68544;45.566;10.238;2023-03-14T06:18:27;98498.00;;;12.84;69.47
79138;BME280;68544;45.566;10.238;2023-03-14T06:20:56;98484.31;;;12.91;70.86
79138;BME280;68544;45.566;10.238;2023-03-14T06:23:22;98479.94;;;13.01;68.67
79138;BME280;68544;45.566;10.238;2023-03-14T06:25:48;98473.22;;;13.04;69.06
79138;BME280;68544;45.566;10.238;2023-03-14T06:28:13;98475.22;;;12.97;69.21
79138;BME280;68544;45.566;10.238;2023-03-14T06:30:38;98461.03;;;12.66;69.45
79138;BME280;68544;45.566;10.238;2023-03-14T06:33:04;98448.06;;;12.68;69.69
79138;BME280;68544;45.566;10.238;2023-03-14T06:35:29;98461.75;;;12.74;70.17
79138;BME280;68544;45.566;10.238;2023-03-14T06:37:55;98450.78;;;12.68;71.57
79138;BME280;68544;45.566;10.238;2023-03-14T06:40:20;98441.28;;;12.66;70.78
79138;BME280;68544;45.566;10.238;2023-03-14T06:42:46;98451.16;;;12.60;71.46
79138;BME280;68544;45.566;10.238;2023-03-14T06:45:11;98435.13;;;12.70;70.73
79138;BME280;68544;45.566;10.238;2023-03-14T06:47:37;98444.59;;;12.96;69.21
79138;BME280;68544;45.566;10.238;2023-03-14T06:50:04;98456.75;;;13.05;68.26
79138;BME280;68544;45.566;10.238;2023-03-14T06:52:30;98456.41;;;13.30;69.99
79138;BME280;68544;45.566;10.238;2023-03-14T06:54:55;98434.03;;;13.23;69.62
79138;BME280;68544;45.566;10.238;2023-03-14T06:57:20;98449.63;;;13.16;70.32
79138;BME280;68544;45.566;10.238;2023-03-14T06:59:46;98460.19;;;13.29;69.96
79138;BME280;68544;45.566;10.238;2023-03-14T07:02:12;98470.25;;;13.45;70.97
79138;BME280;68544;45.566;10.238;2023-03-14T07:04:40;98485.69;;;13.44;67.35
79138;BME280;68544;45.566;10.238;2023-03-14T07:07:06;98481.44;;;13.65;66.12
79138;BME280;68544;45.566;10.238;2023-03-14T07:09:32;98470.03;;;13.63;67.43
79138;BME280;68544;45.566;10.238;2023-03-14T07:11:57;98472.09;;;13.73;67.33
79138;BME280;68544;45.566;10.238;2023-03-14T07:14:23;98480.34;;;13.94;66.08
79138;BME280;68544;45.566;10.238;2023-03-14T07:16:48;98483.66;;;13.96;65.02
79138;BME280;68544;45.566;10.238;2023-03-14T07:19:14;98488.09;;;14.02;65.02
79138;BME280;68544;45.566;10.238;2023-03-14T07:21:39;98483.47;;;14.03;64.79
79138;BME280;68544;45.566;10.238;2023-03-14T07:24:05;98488.41;;;14.22;64.93
79138;BME280;68544;45.566;10.238;2023-03-14T07:26:30;98492.84;;;13.95;64.76
79138;BME280;68544;45.566;10.238;2023-03-14T07:28:55;98507.66;;;14.21;64.38
79138;BME280;68544;45.566;10.238;2023-03-14T07:31:21;98510.97;;;14.40;63.33
79138;BME280;68544;45.566;10.238;2023-03-14T07:33:46;98516.22;;;14.63;64.15
79138;BME280;68544;45.566;10.238;2023-03-14T07:36:12;98516.34;;;14.73;62.97
79138;BME280;68544;45.566;10.238;2023-03-14T07:38:37;98521.25;;;14.92;63.75
79138;BME280;68544;45.566;10.238;2023-03-14T07:41:04;98506.03;;;15.13;63.55
79138;BME280;68544;45.566;10.238;2023-03-14T07:43:31;98510.56;;;15.29;62.65
79138;BME280;68544;45.566;10.238;2023-03-14T07:45:56;98511.91;;;15.27;62.80
79138;BME280;68544;45.566;10.238;2023-03-14T07:48:21;98514.34;;;14.85;62.04
79138;BME280;68544;45.566;10.238;2023-03-14T07:50:51;98475.38;;;14.58;62.13
79138;BME280;68544;45.566;10.238;2023-03-14T07:53:17;98516.13;;;14.96;61.79
79138;BME280;68544;45.566;10.238;2023-03-14T07:55:43;98516.47;;;14.99;61.94
79138;BME280;68544;45.566;10.238;2023-03-14T07:58:09;98519.09;;;14.94;62.14
79138;BME280;68544;45.566;10.238;2023-03-14T08:00:35;98527.16;;;14.68;62.66
79138;BME280;68544;45.566;10.238;2023-03-14T08:03:01;98534.06;;;14.75;62.92
79138;BME280;68544;45.566;10.238;2023-03-14T08:05:27;98539.25;;;14.60;63.57
79138;BME280;68544;45.566;10.238;2023-03-14T08:07:52;98546.75;;;14.70;64.88
79138;BME280;68544;45.566;10.238;2023-03-14T08:10:18;98544.34;;;14.73;64.02
79138;BME280;68544;45.566;10.238;2023-03-14T08:12:46;98537.59;;;14.26;64.10
79138;BME280;68544;45.566;10.238;2023-03-14T08:15:11;98541.53;;;14.68;63.14
79138;BME280;68544;45.566;10.238;2023-03-14T08:17:37;98549.66;;;14.85;63.23
79138;BME280;68544;45.566;10.238;2023-03-14T08:20:02;98545.97;;;14.91;61.83
79138;BME280;68544;45.566;10.238;2023-03-14T08:22:31;98547.59;;;14.92;61.79
79138;BME280;68544;45.566;10.238;2023-03-14T08:24:57;98548.19;;;14.94;62.82
79138;BME280;68544;45.566;10.238;2023-03-14T08:27:22;98534.59;;;14.94;62.44
79138;BME280;68544;45.566;10.238;2023-03-14T08:29:47;98524.06;;;14.81;62.35
79138;BME280;68544;45.566;10.238;2023-03-14T08:32:13;98530.56;;;14.96;61.86
79138;BME280;68544;45.566;10.238;2023-03-14T08:34:38;98535.75;;;15.20;61.54
79138;BME280;68544;45.566;10.238;2023-03-14T08:37:05;98538.00;;;15.06;61.93
79138;BME280;68544;45.566;10.238;2023-03-14T08:39:30;98540.31;;;15.14;61.46
79138;BME280;68544;45.566;10.238;2023-03-14T08:41:56;98544.78;;;15.03;61.79
79138;BME280;68544;45.566;10.238;2023-03-14T08:44:21;98547.13;;;14.95;62.83
79138;BME280;68544;45.566;10.238;2023-03-14T08:46:47;98536.88;;;15.02;62.49
79138;BME280;68544;45.566;10.238;2023-03-14T08:49:12;98547.28;;;14.88;63.04
79138;BME280;68544;45.566;10.238;2023-03-14T08:51:39;98540.53;;;15.13;62.31
79138;BME280;68544;45.566;10.238;2023-03-14T08:54:04;98532.63;;;15.49;60.76
79138;BME280;68544;45.566;10.238;2023-03-14T08:56:30;98528.38;;;15.58;58.97
79138;BME280;68544;45.566;10.238;2023-03-14T08:58:55;98533.69;;;16.02;58.64
79138;BME280;68544;45.566;10.238;2023-03-14T09:01:21;98536.31;;;16.50;57.17
79138;BME280;68544;45.566;10.238;2023-03-14T09:03:49;98531.16;;;16.95;54.15
79138;BME280;68544;45.566;10.238;2023-03-14T09:06:14;98536.28;;;17.33;53.55
79138;BME280;68544;45.566;10.238;2023-03-14T09:08:43;98530.50;;;18.02;50.74
79138;BME280;68544;45.566;10.238;2023-03-14T09:11:09;98535.38;;;19.11;47.96
79138;BME280;68544;45.566;10.238;2023-03-14T09:13:35;98532.94;;;17.98;49.97
79138;BME280;68544;45.566;10.238;2023-03-14T09:16:01;98536.75;;;17.92;50.51
79138;BME280;68544;45.566;10.238;2023-03-14T09:18:27;98537.47;;;17.53;51.80
79138;BME280;68544;45.566;10.238;2023-03-14T09:20:52;98532.34;;;17.66;51.15
79138;BME280;68544;45.566;10.238;2023-03-14T09:23:17;98530.44;;;19.82;45.87
79138;BME280;68544;45.566;10.238;2023-03-14T09:25:43;98528.34;;;21.32;41.53
79138;BME280;68544;45.566;10.238;2023-03-14T09:28:08;98519.09;;;20.42;45.09
79138;BME280;68544;45.566;10.238;2023-03-14T09:30:33;98526.69;;;18.68;49.50
79138;BME280;68544;45.566;10.238;2023-03-14T09:32:59;98530.53;;;18.62;50.46
79138;BME280;68544;45.566;10.238;2023-03-14T09:35:25;98526.72;;;18.63;51.48
79138;BME280;68544;45.566;10.238;2023-03-14T09:37:50;98516.06;;;18.52;50.93
79138;BME280;68544;45.566;10.238;2023-03-14T09:40:18;98516.88;;;18.57;51.58
79138;BME280;68544;45.566;10.238;2023-03-14T09:42:47;98522.88;;;18.69;50.64
79138;BME280;68544;45.566;10.238;2023-03-14T09:45:19;98519.91;;;19.50;47.75
79138;BME280;68544;45.566;10.238;2023-03-14T09:47:48;98514.97;;;19.52;47.36
79138;BME280;68544;45.566;10.238;2023-03-14T09:50:15;98513.13;;;19.32;48.04
79138;BME280;68544;45.566;10.238;2023-03-14T09:52:48;98515.34;;;19.30;47.62
79138;BME280;68544;45.566;10.238;2023-03-14T09:55:18;98511.00;;;19.78;46.89
79138;BME280;68544;45.566;10.238;2023-03-14T09:57:45;98514.06;;;19.03;47.42
79138;BME280;68544;45.566;10.238;2023-03-14T10:00:14;98516.50;;;19.09;47.37
79138;BME280;68544;45.566;10.238;2023-03-14T10:02:45;98511.31;;;19.03;47.94
79138;BME280;68544;45.566;10.238;2023-03-14T10:05:17;98515.78;;;18.63;48.78
79138;BME280;68544;45.566;10.238;2023-03-14T10:07:43;98510.31;;;18.58;49.12
79138;BME280;68544;45.566;10.238;2023-03-14T10:10:29;98487.88;;;22.17;40.95
79138;BME280;68544;45.566;10.238;2023-03-14T10:13:10;98490.63;;;21.80;40.37
79138;BME280;68544;45.566;10.238;2023-03-14T10:15:38;98485.69;;;24.01;35.28
79138;BME280;68544;45.566;10.238;2023-03-14T10:18:12;98482.97;;;21.77;39.36
79138;BME280;68544;45.566;10.238;2023-03-14T10:20:44;98482.03;;;26.32;30.89
79138;BME280;68544;45.566;10.238;2023-03-14T10:25:40;98467.34;;;28.74;25.13
79138;BME280;68544;45.566;10.238;2023-03-14T10:28:30;98464.13;;;31.62;21.77
79138;BME280;68544;45.566;10.238;2023-03-14T10:30:56;98454.03;;;33.30;19.42
79138;BME280;68544;45.566;10.238;2023-03-14T10:33:25;98454.41;;;30.94;21.83
79138;BME280;68544;45.566;10.238;2023-03-14T10:35:57;98451.59;;;30.51;22.40
79138;BME280;68544;45.566;10.238;2023-03-14T10:38:27;98457.81;;;31.03;21.17
79138;BME280;68544;45.566;10.238;2023-03-14T10:40:54;98448.81;;;33.06;18.97
79138;BME280;68544;45.566;10.238;2023-03-14T10:43:24;98454.03;;;31.27;21.34
79138;BME280;68544;45.566;10.238;2023-03-14T10:45:54;98447.34;;;30.41;22.81
79138;BME280;68544;45.566;10.238;2023-03-14T10:48:34;98447.09;;;26.66;28.51
79138;BME280;68544;45.566;10.238;2023-03-14T10:51:10;98443.09;;;24.07;32.23
79138;BME280;68544;45.566;10.238;2023-03-14T10:53:43;98445.72;;;23.13;35.62
79138;BME280;68544;45.566;10.238;2023-03-14T10:56:17;98439.66;;;23.52;34.57
79138;BME280;68544;45.566;10.238;2023-03-14T10:58:45;98436.75;;;26.45;28.51
79138;BME280;68544;45.566;10.238;2023-03-14T11:09:32;98430.78;;;22.60;36.18
79138;BME280;68544;45.566;10.238;2023-03-14T11:15:30;98416.94;;;30.64;22.28
79138;BME280;68544;45.566;10.238;2023-03-14T11:21:06;98414.56;;;30.22;23.29
79138;BME280;68544;45.566;10.238;2023-03-14T11:23:54;98409.81;;;31.60;20.54
79138;BME280;68544;45.566;10.238;2023-03-14T11:26:37;98406.47;;;32.85;19.58
79138;BME280;68544;45.566;10.238;2023-03-14T11:32:02;98394.19;;;32.47;19.24
79138;BME280;68544;45.566;10.238;2023-03-14T11:34:52;98388.06;;;32.84;19.08
79138;BME280;68544;45.566;10.238;2023-03-14T11:37:33;98395.22;;;28.33;25.33
79138;BME280;68544;45.566;10.238;2023-03-14T11:42:33;98390.88;;;31.50;21.18
79138;BME280;68544;45.566;10.238;2023-03-14T11:45:00;98387.50;;;32.75;19.68
79138;BME280;68544;45.566;10.238;2023-03-14T11:47:32;98395.78;;;32.48;19.51
79138;BME280;68544;45.566;10.238;2023-03-14T11:50:17;98380.38;;;33.00;18.68
79138;BME280;68544;45.566;10.238;2023-03-14T11:52:56;98375.84;;;33.14;18.47
79138;BME280;68544;45.566;10.238;2023-03-14T11:55:32;98375.19;;;32.56;19.73
79138;BME280;68544;45.566;10.238;2023-03-14T11:58:00;98371.72;;;32.44;19.28
79138;BME280;68544;45.566;10.238;2023-03-14T12:00:28;98364.09;;;33.58;18.13
79138;BME280;68544;45.566;10.238;2023-03-14T12:05:48;98370.22;;;33.63;18.86
79138;BME280;68544;45.566;10.238;2023-03-14T12:08:33;98362.97;;;33.10;19.33
79138;BME280;68544;45.566;10.238;2023-03-14T12:11:10;98352.94;;;33.09;19.79
79138;BME280;68544;45.566;10.238;2023-03-14T12:13:39;98356.03;;;32.17;20.12
79138;BME280;68544;45.566;10.238;2023-03-14T12:16:07;98350.53;;;32.01;20.23
79138;BME280;68544;45.566;10.238;2023-03-14T12:18:37;98336.41;;;32.78;19.67
79138;BME280;68544;45.566;10.238;2023-03-14T12:21:06;98350.31;;;30.74;22.20
79138;BME280;68544;45.566;10.238;2023-03-14T12:23:43;98342.31;;;28.62;25.91
79138;BME280;68544;45.566;10.238;2023-03-14T12:26:21;98351.28;;;27.11;28.34
79138;BME280;68544;45.566;10.238;2023-03-14T12:39:35;98358.53;;;22.09;39.40
79138;BME280;68544;45.566;10.238;2023-03-14T12:42:09;98349.69;;;22.12;40.26
79138;BME280;68544;45.566;10.238;2023-03-14T12:44:42;98341.19;;;21.94;41.29
79138;BME280;68544;45.566;10.238;2023-03-14T12:49:44;98341.84;;;21.36;42.24
79138;BME280;68544;45.566;10.238;2023-03-14T12:52:20;98340.50;;;21.33;42.18
79138;BME280;68544;45.566;10.238;2023-03-14T12:55:07;98316.28;;;20.98;43.27
79138;BME280;68544;45.566;10.238;2023-03-14T13:00:00;98341.53;;;21.18;42.76
79138;BME280;68544;45.566;10.238;2023-03-14T13:02:43;98331.25;;;20.87;43.69
79138;BME280;68544;45.566;10.238;2023-03-14T13:17:49;98306.50;;;20.50;44.69
79138;BME280;68544;45.566;10.238;2023-03-14T13:20:30;98308.41;;;20.49;45.38
79138;BME280;68544;45.566;10.238;2023-03-14T13:22:56;98297.50;;;20.20;45.21
79138;BME280;68544;45.566;10.238;2023-03-14T13:25:22;98296.16;;;20.41;44.56
79138;BME280;68544;45.566;10.238;2023-03-14T13:27:48;98309.53;;;20.19;45.64
79138;BME280;68544;45.566;10.238;2023-03-14T13:30:41;98282.91;;;19.73;46.74
79138;BME280;68544;45.566;10.238;2023-03-14T13:33:16;98286.94;;;19.80;47.05
79138;BME280;68544;45.566;10.238;2023-03-14T13:35:58;98275.28;;;19.64;47.82
79138;BME280;68544;45.566;10.238;2023-03-14T13:38:26;98282.19;;;19.62;47.95
79138;BME280;68544;45.566;10.238;2023-03-14T13:40:55;98274.81;;;19.24;48.97
79138;BME280;68544;45.566;10.238;2023-03-14T13:43:27;98273.81;;;19.10;49.34
79138;BME280;68544;45.566;10.238;2023-03-14T13:46:02;98268.81;;;19.17;48.72
79138;BME280;68544;45.566;10.238;2023-03-14T13:48:29;98268.31;;;18.71;49.82
79138;BME280;68544;45.566;10.238;2023-03-14T13:51:00;98266.41;;;18.66;49.98
79138;BME280;68544;45.566;10.238;2023-03-14T13:53:26;98267.47;;;18.70;50.52
79138;BME280;68544;45.566;10.238;2023-03-14T13:55:52;98258.59;;;18.93;49.99
79138;BME280;68544;45.566;10.238;2023-03-14T13:58:29;98272.94;;;18.75;50.21
79138;BME280;68544;45.566;10.238;2023-03-14T14:01:00;98274.72;;;18.46;50.39
79138;BME280;68544;45.566;10.238;2023-03-14T14:03:28;98271.69;;;18.43;50.92
79138;BME280;68544;45.566;10.238;2023-03-14T14:05:56;98269.72;;;18.63;50.54
79138;BME280;68544;45.566;10.238;2023-03-14T14:08:23;98267.47;;;18.75;50.48
79138;BME280;68544;45.566;10.238;2023-03-14T14:10:49;98270.28;;;18.60;51.05
79138;BME280;68544;45.566;10.238;2023-03-14T14:13:15;98276.41;;;18.27;52.22
79138;BME280;68544;45.566;10.238;2023-03-14T14:15:45;98275.78;;;18.50;51.76
79138;BME280;68544;45.566;10.238;2023-03-14T14:18:15;98264.91;;;18.30;52.16
79138;BME280;68544;45.566;10.238;2023-03-14T14:20:45;98264.88;;;18.50;51.71
79138;BME280;68544;45.566;10.238;2023-03-14T14:23:18;98259.09;;;18.57;51.06
79138;BME280;68544;45.566;10.238;2023-03-14T14:25:45;98262.59;;;18.62;51.11
79138;BME280;68544;45.566;10.238;2023-03-14T14:34:03;98258.09;;;18.28;52.19
79138;BME280;68544;45.566;10.238;2023-03-14T14:36:40;98267.13;;;18.18;52.50
79138;BME280;68544;45.566;10.238;2023-03-14T14:39:17;98260.34;;;18.05;53.18
79138;BME280;68544;45.566;10.238;2023-03-14T14:41:43;98255.13;;;18.19;52.72
79138;BME280;68544;45.566;10.238;2023-03-14T14:44:13;98257.88;;;18.09;52.94
79138;BME280;68544;45.566;10.238;2023-03-14T14:46:42;98253.50;;;18.13;52.83
79138;BME280;68544;45.566;10.238;2023-03-14T14:49:13;98256.25;;;18.08;53.15
79138;BME280;68544;45.566;10.238;2023-03-14T14:51:47;98257.38;;;18.02;53.63
79138;BME280;68544;45.566;10.238;2023-03-14T14:56:46;98255.72;;;18.01;53.48
79138;BME280;68544;45.566;10.238;2023-03-14T14:59:24;98252.16;;;18.05;53.52
79138;BME280;68544;45.566;10.238;2023-03-14T15:01:55;98255.13;;;18.14;52.48
79138;BME280;68544;45.566;10.238;2023-03-14T15:04:21;98237.47;;;17.86;53.07
79138;BME280;68544;45.566;10.238;2023-03-14T15:06:49;98240.25;;;17.41;54.26
79138;BME280;68544;45.566;10.238;2023-03-14T15:09:15;98244.88;;;17.61;53.85
79138;BME280;68544;45.566;10.238;2023-03-14T15:11:43;98236.16;;;17.64;54.02
79138;BME280;68544;45.566;10.238;2023-03-14T15:14:08;98239.69;;;17.54;54.34
79138;BME280;68544;45.566;10.238;2023-03-14T15:16:33;98244.34;;;17.64;53.96
79138;BME280;68544;45.566;10.238;2023-03-14T15:19:10;98243.78;;;17.67;53.74
79138;BME280;68544;45.566;10.238;2023-03-14T15:21:36;98239.44;;;17.71;53.50
79138;BME280;68544;45.566;10.238;2023-03-14T15:24:04;98235.34;;;17.58;53.38
79138;BME280;68544;45.566;10.238;2023-03-14T15:26:29;98237.81;;;17.60;53.58
79138;BME280;68544;45.566;10.238;2023-03-14T15:28:55;98237.22;;;17.37;53.93
79138;BME280;68544;45.566;10.238;2023-03-14T15:31:20;98233.44;;;17.38;54.44
79138;BME280;68544;45.566;10.238;2023-03-14T15:33:47;98237.81;;;17.50;53.95
79138;BME280;68544;45.566;10.238;2023-03-14T15:36:24;98245.44;;;17.68;53.56
79138;BME280;68544;45.566;10.238;2023-03-14T15:38:51;98248.16;;;17.32;54.39
79138;BME280;68544;45.566;10.238;2023-03-14T15:41:17;98250.88;;;17.27;54.35
79138;BME280;68544;45.566;10.238;2023-03-14T15:43:43;98255.25;;;17.23;54.74
79138;BME280;68544;45.566;10.238;2023-03-14T15:46:10;98247.63;;;17.30;54.47
79138;BME280;68544;45.566;10.238;2023-03-14T15:48:36;98240.81;;;17.28;54.31
79138;BME280;68544;45.566;10.238;2023-03-14T15:51:01;98241.59;;;17.08;55.42
79138;BME280;68544;45.566;10.238;2023-03-14T15:53:26;98242.69;;;17.27;54.75
79138;BME280;68544;45.566;10.238;2023-03-14T15:55:51;98248.19;;;17.22;55.32
79138;BME280;68544;45.566;10.238;2023-03-14T15:58:18;98249.81;;;17.13;56.25
79138;BME280;68544;45.566;10.238;2023-03-14T16:00:44;98249.25;;;17.06;56.64
79138;BME280;68544;45.566;10.238;2023-03-14T16:03:09;98244.31;;;16.93;57.38
79138;BME280;68544;45.566;10.238;2023-03-14T16:05:37;98239.97;;;17.07;57.32